Time;durP1;ratioP1;P1;durP2;ratioP2;P2;SDS_P1;SDS_P2;PMS_P1;PMS_P2;Temp;Humidity;BMP_temperature;BMP_pressure;BME280_temperature;BME280_humidity;BME280_pressure;Samples;Min_cycle;Max_cycle;Signal;HPM_P1;HPM_P2
2022/02/04 00:23:10;;;;;;;54.80;29.17;;;6.80;99.90;;;;;;5065053;28;20488;-50
2022/02/04 00:25:50;;;;;;;59.70;30.77;;;6.80;99.90;;;;;;5071945;28;20032;-50
2022/02/04 00:28:30;;;;;;;62.15;30.63;;;6.70;99.90;;;;;;5067143;28;20028;-49
2022/02/04 00:31:18;;;;;;;58.58;30.90;;;6.70;99.90;;;;;;5065416;28;20033;-51
2022/02/04 00:33:46;;;;;;;65.22;32.15;;;6.70;99.90;;;;;;5074230;28;20029;-51
2022/02/04 00:36:21;;;;;;;61.30;32.78;;;6.70;99.90;;;;;;5063417;28;20032;-51
2022/02/04 00:38:51;;;;;;;67.15;34.63;;;6.70;99.90;;;;;;5071091;28;20043;-49
2022/02/04 00:41:21;;;;;;;61.65;32.90;;;6.70;99.90;;;;;;5066493;28;20054;-50
2022/02/04 00:43:50;;;;;;;70.25;33.72;;;6.70;99.90;;;;;;5071156;28;20043;-51
2022/02/04 00:46:25;;;;;;;68.70;35.28;;;6.70;99.90;;;;;;5065561;28;20025;-49
2022/02/04 00:49:02;;;;;;;69.07;34.33;;;6.70;99.90;;;;;;5069636;28;20303;-49
2022/02/04 00:56:36;;;;;;;71.22;36.45;;;6.70;99.90;;;;;;5066009;28;20095;-49
2022/02/04 01:26:18;;;;;;;76.88;36.15;;;6.70;99.90;;;;;;5071404;28;20042;-49
2022/02/04 01:28:46;;;;;;;73.97;36.10;;;6.70;99.90;;;;;;5071794;28;20032;-49
2022/02/04 01:31:16;;;;;;;75.53;37.80;;;6.60;99.90;;;;;;5071814;28;20032;-50
2022/02/04 01:33:42;;;;;;;84.57;39.55;;;6.60;99.90;;;;;;5056105;28;20391;-51
2022/02/04 01:36:07;;;;;;;83.53;39.47;;;6.70;99.90;;;;;;5056427;28;20025;-51
2022/02/04 01:38:33;;;;;;;74.68;36.60;;;6.70;99.90;;;;;;5068270;28;20090;-50
2022/02/04 01:40:59;;;;;;;76.25;37.03;;;6.70;99.90;;;;;;5062852;28;20120;-49
2022/02/04 01:43:26;;;;;;;80.75;39.15;;;6.70;99.90;;;;;;5071981;28;20040;-49
2022/02/04 01:45:54;;;;;;;87.50;42.13;;;6.70;99.90;;;;;;5062454;28;20037;-49
2022/02/04 01:48:20;;;;;;;84.88;40.33;;;6.70;99.90;;;;;;5071891;28;20036;-50
2022/02/04 01:50:47;;;;;;;82.82;39.97;;;6.70;99.90;;;;;;5062518;28;20108;-51
2022/02/04 01:53:14;;;;;;;82.30;38.75;;;6.70;99.90;;;;;;5071091;28;20029;-50
2022/02/04 01:55:43;;;;;;;86.57;38.42;;;6.70;99.90;;;;;;5061709;28;20064;-49
2022/02/04 01:58:09;;;;;;;85.20;39.47;;;6.70;99.90;;;;;;5070367;28;20024;-49
2022/02/04 02:00:35;;;;;;;87.30;40.30;;;6.70;99.90;;;;;;5062936;28;20029;-49
2022/02/04 02:03:01;;;;;;;84.53;39.22;;;6.70;99.90;;;;;;5071176;28;20078;-49
2022/02/04 02:05:26;;;;;;;77.38;38.08;;;6.60;99.90;;;;;;5061146;28;20044;-49
2022/02/04 02:07:52;;;;;;;88.32;39.35;;;6.70;99.90;;;;;;5068017;28;20037;-51
2022/02/04 02:10:19;;;;;;;79.13;37.42;;;6.70;99.90;;;;;;5064817;28;20059;-49
2022/02/04 02:45:01;;;;;;;88.43;42.10;;;6.70;99.90;;;;;;5070551;28;20052;-49
2022/02/04 03:02:55;;;;;;;91.38;44.80;;;6.70;99.90;;;;;;5071412;28;20032;-50
2022/02/04 03:05:21;;;;;;;92.65;43.42;;;6.70;99.90;;;;;;5070844;28;20067;-51
2022/02/04 03:07:46;;;;;;;88.80;41.83;;;6.70;99.90;;;;;;5065872;28;20060;-49
2022/02/04 03:10:12;;;;;;;90.40;44.38;;;6.80;99.90;;;;;;5055715;28;20021;-49
2022/02/04 03:12:41;;;;;;;91.07;44.45;;;6.70;99.90;;;;;;5062761;28;20108;-50
2022/02/04 03:15:08;;;;;;;89.75;44.55;;;6.70;99.90;;;;;;5071322;28;20450;-50
2022/02/04 03:17:33;;;;;;;93.18;43.38;;;6.70;99.90;;;;;;5059836;28;20033;-50
2022/02/04 03:20:04;;;;;;;96.05;46.38;;;6.70;99.90;;;;;;5069786;28;20033;-48
2022/02/04 03:22:30;;;;;;;94.50;44.72;;;6.80;99.90;;;;;;5068119;28;20089;-50
2022/02/04 03:24:59;;;;;;;91.97;45.13;;;6.80;99.90;;;;;;5067861;28;20028;-49
2022/02/04 03:27:33;;;;;;;93.32;44.15;;;6.80;99.90;;;;;;5069214;28;20497;-51
2022/02/04 03:30:07;;;;;;;98.00;47.15;;;6.80;99.90;;;;;;5068062;28;20367;-49
2022/02/04 03:32:37;;;;;;;88.45;43.47;;;6.80;99.90;;;;;;5069517;28;20029;-49
2022/02/04 03:35:03;;;;;;;90.18;44.05;;;6.80;99.90;;;;;;5068759;28;20032;-51
2022/02/04 03:37:28;;;;;;;91.88;44.70;;;6.80;99.90;;;;;;5068775;28;20032;-49
2022/02/04 03:39:54;;;;;;;87.45;42.95;;;6.80;99.90;;;;;;5066341;28;20047;-48
2022/02/04 03:42:20;;;;;;;91.95;45.90;;;6.80;99.90;;;;;;5063454;28;20024;-51
2022/02/04 03:44:45;;;;;;;90.20;45.10;;;6.80;99.90;;;;;;5067535;28;20074;-48
2022/02/04 03:47:11;;;;;;;86.70;42.60;;;6.80;99.90;;;;;;5061569;28;20039;-48
2022/02/04 03:49:37;;;;;;;89.18;43.53;;;6.80;99.90;;;;;;5068682;28;20043;-49
2022/02/04 03:52:02;;;;;;;86.90;43.97;;;6.80;99.90;;;;;;5069417;28;20044;-48
2022/02/04 03:54:28;;;;;;;90.15;44.40;;;6.80;99.90;;;;;;5068318;28;20037;-48
2022/02/04 03:56:54;;;;;;;86.15;43.70;;;6.70;99.90;;;;;;5072889;28;20173;-49
2022/02/04 03:59:19;;;;;;;86.50;44.65;;;6.80;99.90;;;;;;5065029;28;20059;-48
2022/02/04 04:01:45;;;;;;;90.60;44.58;;;6.80;99.90;;;;;;5071230;28;20421;-49
2022/02/04 04:04:10;;;;;;;91.50;45.28;;;6.80;99.90;;;;;;5064479;28;20024;-50
2022/02/04 04:06:36;;;;;;;93.18;46.35;;;6.80;99.90;;;;;;5072667;28;20443;-49
2022/02/04 04:09:02;;;;;;;91.15;44.13;;;6.80;99.90;;;;;;5064539;28;20029;-50
2022/02/04 04:11:28;;;;;;;92.75;44.53;;;6.80;99.90;;;;;;5073226;28;20351;-48
2022/02/04 04:13:53;;;;;;;90.07;44.20;;;6.80;99.90;;;;;;5064202;28;20037;-49
2022/02/04 04:16:20;;;;;;;87.45;45.03;;;6.80;99.90;;;;;;5062589;28;20474;-49
2022/02/04 04:18:46;;;;;;;86.47;42.90;;;6.80;99.90;;;;;;5064709;28;20028;-48
2022/02/04 04:21:11;;;;;;;87.97;44.20;;;6.80;99.90;;;;;;5071313;28;20044;-49
2022/02/04 04:23:37;;;;;;;85.05;43.30;;;6.80;99.90;;;;;;5071913;28;20028;-51
2022/02/04 04:26:03;;;;;;;91.20;45.35;;;6.80;99.90;;;;;;5067678;28;20086;-49
2022/02/04 04:28:28;;;;;;;88.72;43.05;;;6.90;99.90;;;;;;5066643;28;20029;-48
2022/02/04 04:30:54;;;;;;;82.05;41.50;;;6.90;99.90;;;;;;5069580;28;20025;-50
2022/02/04 04:33:20;;;;;;;83.63;41.47;;;6.90;99.90;;;;;;5066420;28;20027;-49
2022/02/04 04:35:45;;;;;;;84.38;43.47;;;6.90;99.90;;;;;;5068552;28;20067;-49
2022/02/04 05:29:28;;;;;;;62.28;33.17;;;6.90;99.90;;;;;;5070621;28;20154;-49
2022/02/04 05:31:54;;;;;;;70.68;36.35;;;6.90;99.90;;;;;;5061422;28;20389;-49
2022/02/04 05:34:21;;;;;;;66.65;34.55;;;6.90;99.90;;;;;;5070198;28;20517;-50
2022/02/04 05:36:54;;;;;;;69.32;34.28;;;6.90;99.90;;;;;;5071178;28;20028;-49
2022/02/04 05:39:25;;;;;;;61.83;32.55;;;6.90;99.90;;;;;;5070731;28;20043;-49
2022/02/04 05:41:51;;;;;;;65.47;32.75;;;6.80;99.90;;;;;;5063407;28;20020;-49
2022/02/04 05:44:17;;;;;;;67.65;34.28;;;6.80;99.90;;;;;;5070002;28;20033;-49
2022/02/04 05:46:54;;;;;;;68.57;34.85;;;6.80;99.90;;;;;;5062754;28;20471;-50
2022/02/04 05:49:22;;;;;;;71.43;34.92;;;6.80;99.90;;;;;;5070513;28;20032;-48
2022/02/04 05:57:18;;;;;;;60.22;29.95;;;6.90;99.90;;;;;;5063264;28;20024;-48
2022/02/04 06:02:54;;;;;;;68.00;34.20;;;6.90;99.90;;;;;;5070500;28;20074;-49
2022/02/04 06:05:55;;;;;;;63.17;33.07;;;6.90;99.90;;;;;;5067161;28;20132;-48
2022/02/04 06:08:43;;;;;;;61.33;31.70;;;6.90;99.90;;;;;;5063539;28;20489;-49
2022/02/04 06:24:39;;;;;;;68.25;33.28;;;7.00;99.90;;;;;;5061702;28;20351;-49
2022/02/04 06:27:05;;;;;;;64.95;33.40;;;7.00;99.90;;;;;;5069833;28;20116;-50
2022/02/04 06:29:33;;;;;;;66.72;33.92;;;7.00;99.90;;;;;;5068251;28;20454;-47
2022/02/04 06:31:58;;;;;;;69.38;33.83;;;7.00;99.90;;;;;;5070377;28;20037;-48
2022/02/04 06:34:24;;;;;;;62.10;33.20;;;7.00;99.90;;;;;;5068486;28;20033;-50
2022/02/04 06:36:50;;;;;;;63.88;33.28;;;7.00;99.90;;;;;;5069598;28;20028;-50
2022/02/04 06:39:15;;;;;;;68.47;33.72;;;7.00;99.90;;;;;;5060361;28;20024;-49
2022/02/04 06:41:41;;;;;;;70.57;34.83;;;7.00;99.90;;;;;;5060171;28;20083;-49
2022/02/04 06:44:06;;;;;;;63.83;33.75;;;7.00;99.90;;;;;;5064797;28;20017;-49
2022/02/04 06:46:32;;;;;;;73.32;34.83;;;7.00;99.90;;;;;;5064157;28;20028;-50
2022/02/04 06:48:58;;;;;;;67.13;32.72;;;7.00;99.90;;;;;;5055505;28;20055;-49
2022/02/04 06:51:24;;;;;;;69.10;35.15;;;7.00;99.90;;;;;;5070904;28;20378;-50
2022/02/04 06:53:49;;;;;;;71.93;36.40;;;7.00;99.90;;;;;;5071574;28;20158;-50
2022/02/04 06:56:15;;;;;;;70.63;36.00;;;6.90;99.90;;;;;;5070164;28;20047;-49
2022/02/04 06:58:41;;;;;;;65.82;34.97;;;7.00;99.90;;;;;;5063699;28;20020;-50
2022/02/04 07:01:06;;;;;;;66.30;33.10;;;6.90;99.90;;;;;;5069126;28;20057;-49
2022/02/04 07:03:33;;;;;;;71.32;34.33;;;6.90;99.90;;;;;;5059811;28;20025;-49
2022/02/04 07:06:01;;;;;;;73.47;35.75;;;6.90;99.90;;;;;;5069378;28;20065;-50
2022/02/04 07:08:37;;;;;;;70.53;35.00;;;7.00;99.90;;;;;;5068265;28;20042;-49
2022/02/04 07:11:34;;;;;;;71.30;35.70;;;7.00;99.90;;;;;;5050116;28;20445;-50
2022/02/04 07:16:38;;;;;;;74.30;34.53;;;7.00;99.90;;;;;;5068486;28;20032;-51
2022/02/04 07:21:49;;;;;;;68.00;35.15;;;7.00;99.90;;;;;;5059789;28;20500;-47
2022/02/04 07:24:14;;;;;;;65.55;35.13;;;7.00;99.90;;;;;;5065630;28;20033;-48
2022/02/04 07:26:40;;;;;;;71.85;36.72;;;7.00;99.90;;;;;;5062240;28;20489;-49
2022/02/04 07:29:05;;;;;;;66.00;34.72;;;7.00;99.90;;;;;;5088797;28;20500;-49
2022/02/04 07:31:35;;;;;;;73.13;37.45;;;7.00;99.90;;;;;;5089710;28;20437;-49
2022/02/04 07:42:13;;;;;;;64.38;34.10;;;7.30;99.90;;;;;;5048917;28;20120;-45
2022/02/04 07:44:39;;;;;;;71.00;36.00;;;7.40;99.90;;;;;;5064731;28;20119;-46
2022/02/04 07:47:05;;;;;;;65.50;36.40;;;7.40;99.90;;;;;;5062622;28;20557;-47
2022/02/04 07:49:31;;;;;;;62.45;34.15;;;7.40;99.90;;;;;;5063769;28;20120;-46
2022/02/04 07:51:56;;;;;;;67.75;36.63;;;7.40;99.90;;;;;;5049931;28;20032;-46
2022/02/04 07:54:22;;;;;;;67.13;35.80;;;7.30;99.90;;;;;;5049519;28;20116;-49
2022/02/04 07:56:48;;;;;;;57.90;27.42;;;7.30;99.90;;;;;;5049235;28;20393;-51
2022/02/04 07:59:13;;;;;;;67.05;33.53;;;7.30;99.90;;;;;;5048115;28;20037;-49
2022/02/04 08:01:39;;;;;;;64.07;31.90;;;7.30;99.90;;;;;;5059220;28;20499;-50
2022/02/04 08:04:15;;;;;;;55.42;25.70;;;7.30;99.90;;;;;;5065606;28;20039;-47
2022/02/04 08:06:47;;;;;;;65.10;31.02;;;7.30;99.90;;;;;;5066303;28;20032;-47
2022/02/04 08:20:04;;;;;;;63.65;31.35;;;7.30;99.90;;;;;;5031742;28;20037;-49
2022/02/04 08:22:49;;;;;;;60.65;30.88;;;7.30;99.90;;;;;;5068923;28;20441;-48
2022/02/04 08:25:28;;;;;;;;;;;7.30;99.90;;;;;;5052068;28;20033;-51
2022/02/04 08:30:48;;;;;;;67.78;34.75;;;7.40;99.90;;;;;;5061601;28;20498;-48
2022/02/04 08:33:38;;;;;;;64.68;33.97;;;7.40;99.90;;;;;;5053716;28;20075;-49
2022/02/04 08:39:02;;;;;;;65.38;32.22;;;7.40;99.90;;;;;;5050443;28;20306;-49
2022/02/04 08:46:46;;;;;;;59.97;32.88;;;7.50;99.90;;;;;;5052327;28;20456;-50
2022/02/04 08:54:49;;;;;;;62.08;32.72;;;7.60;99.90;;;;;;5052069;28;20442;-50
2022/02/04 09:00:00;;;;;;;59.92;31.40;;;7.60;99.90;;;;;;5051754;28;20033;-52
2022/02/04 09:02:38;;;;;;;;;;;7.60;99.90;;;;;;5053414;28;20658;-49
2022/02/04 09:05:08;;;;;;;56.28;30.67;;;7.60;99.90;;;;;;5055553;28;19959;-55
2022/02/04 09:08:09;;;;;;;57.13;31.02;;;7.70;99.90;;;;;;5049894;28;20145;-50
2022/02/04 09:10:23;;;;;;;56.72;31.05;;;7.60;99.90;;;;;;5052369;28;20509;-49
2022/02/04 09:18:34;;;;;;;54.25;29.00;;;7.80;99.90;;;;;;5056365;28;20564;-47
2022/02/04 09:23:24;;;;;;;53.35;29.48;;;7.80;99.90;;;;;;5050777;28;20111;-49
2022/02/04 09:25:51;;;;;;;50.53;29.08;;;7.80;99.90;;;;;;5051837;28;20035;-49
2022/02/04 09:28:17;;;;;;;54.20;30.20;;;7.90;99.90;;;;;;5056442;28;20170;-48
2022/02/04 09:30:43;;;;;;;52.75;28.92;;;7.80;99.90;;;;;;5053061;28;20690;-50
2022/02/04 09:33:12;;;;;;;51.65;28.85;;;7.80;99.90;;;;;;5071403;28;20036;-49
2022/02/04 09:35:38;;;;;;;56.38;30.02;;;7.80;99.90;;;;;;5052924;28;20040;-50
2022/02/04 09:38:04;;;;;;;52.75;29.10;;;7.90;99.90;;;;;;5050077;28;20041;-50
2022/02/04 09:40:30;;;;;;;48.33;28.05;;;7.90;99.90;;;;;;5050391;28;20029;-53
2022/02/04 09:42:55;;;;;;;48.88;27.67;;;7.90;99.90;;;;;;5042855;28;20520;-48
2022/02/04 09:45:27;;;;;;;45.78;27.35;;;7.90;99.90;;;;;;5052718;28;20033;-53
2022/02/04 09:48:03;;;;;;;51.30;27.13;;;7.90;99.90;;;;;;5056616;28;20077;-50
2022/02/04 09:50:31;;;;;;;46.72;25.48;;;7.90;99.90;;;;;;5066398;28;20447;-49
2022/02/04 10:18:13;;;;;;;42.22;24.00;;;8.20;99.90;;;;;;5068585;28;20277;-50
2022/02/04 10:20:40;;;;;;;43.45;23.73;;;8.20;99.90;;;;;;5070453;28;20029;-50
2022/02/04 10:23:06;;;;;;;43.80;24.88;;;8.30;99.90;;;;;;5065839;28;20024;-48
2022/02/04 10:25:35;;;;;;;45.28;25.85;;;8.40;99.90;;;;;;5067637;28;20024;-49
2022/02/04 10:28:04;;;;;;;44.65;26.33;;;8.40;99.90;;;;;;5070170;28;20040;-47
2022/02/04 10:30:32;;;;;;;39.88;23.42;;;8.50;99.90;;;;;;5050213;28;20139;-47
2022/02/04 10:32:59;;;;;;;42.60;24.38;;;8.60;99.90;;;;;;5070204;28;20032;-49
2022/02/04 10:35:33;;;;;;;39.53;23.52;;;8.60;99.90;;;;;;5061139;28;20734;-48
2022/02/04 10:38:08;;;;;;;43.78;25.25;;;8.60;99.90;;;;;;5058479;28;20040;-49
2022/02/04 10:40:54;;;;;;;39.75;23.35;;;8.60;99.90;;;;;;5068794;28;20374;-47
2022/02/04 10:43:40;;;;;;;41.75;24.00;;;8.50;99.90;;;;;;5063797;28;20028;-49
2022/02/04 10:46:33;;;;;;;44.60;23.88;;;8.50;99.90;;;;;;5064344;28;20479;-48
2022/02/04 10:49:35;;;;;;;36.50;22.63;;;8.50;99.90;;;;;;5069757;28;20151;-48
2022/02/04 10:55:32;;;;;;;40.25;22.88;;;8.50;99.90;;;;;;5068897;28;20486;-53
2022/02/04 11:00:56;;;;;;;40.33;22.83;;;8.60;99.90;;;;;;5064335;28;20128;-52
2022/02/04 11:03:23;;;;;;;39.13;21.92;;;8.70;99.90;;;;;;5063682;28;20029;-47
2022/02/04 11:05:59;;;;;;;35.88;20.80;;;8.70;99.90;;;;;;5059868;28;20047;-50
2022/02/04 11:09:22;;;;;;;36.78;21.55;;;8.70;99.90;;;;;;5064139;28;20029;-48
2022/02/04 11:33:55;;;;;;;27.80;17.85;;;9.00;99.90;;;;;;5063438;28;20029;-48
2022/02/04 11:54:31;;;;;;;26.13;13.65;;;9.60;99.90;;;;;;5050111;28;19909;-50
2022/02/04 11:57:01;;;;;;;26.10;14.50;;;9.60;99.90;;;;;;5068483;28;20033;-50
2022/02/04 11:59:47;;;;;;;22.15;14.38;;;9.60;99.90;;;;;;5062252;28;20120;-50
2022/02/04 12:02:29;;;;;;;22.73;14.00;;;9.60;99.90;;;;;;5064761;28;20032;-47
2022/02/04 12:05:15;;;;;;;20.92;13.05;;;9.60;99.90;;;;;;5068428;28;20047;-51
2022/02/04 12:07:42;;;;;;;26.15;14.60;;;9.60;99.90;;;;;;5066811;28;20040;-50
2022/02/04 12:10:13;;;;;;;22.83;13.27;;;9.60;99.90;;;;;;5064128;28;20097;-49
2022/02/04 12:12:58;;;;;;;24.52;14.23;;;9.40;99.90;;;;;;5066980;28;20115;-48
2022/02/04 12:15:34;;;;;;;24.42;14.40;;;9.40;99.90;;;;;;5059918;28;20032;-51
2022/02/04 12:18:03;;;;;;;28.85;13.50;;;9.30;99.90;;;;;;5071597;28;20059;-50
2022/02/04 12:20:50;;;;;;;21.33;13.77;;;9.30;99.90;;;;;;5072453;28;20028;-48
2022/02/04 12:25:57;;;;;;;21.40;13.38;;;9.10;99.90;;;;;;5070573;28;20039;-48
2022/02/04 12:28:37;;;;;;;24.83;12.93;;;9.10;99.90;;;;;;5063417;28;20101;-49
2022/02/04 12:31:14;;;;;;;20.23;12.60;;;9.10;99.90;;;;;;5052670;28;20111;-49
2022/02/04 12:33:49;;;;;;;26.85;12.43;;;9.20;99.90;;;;;;5069507;28;20039;-48
2022/02/04 12:36:21;;;;;;;19.92;12.38;;;9.10;99.90;;;;;;5070860;28;20051;-50
2022/02/04 12:38:48;;;;;;;20.80;11.13;;;9.10;99.90;;;;;;5068845;28;20036;-49
2022/02/04 12:41:32;;;;;;;20.25;11.95;;;9.00;99.90;;;;;;5065941;28;20017;-51
2022/02/04 12:44:04;;;;;;;18.23;11.85;;;9.00;99.90;;;;;;5071736;28;20078;-52
2022/02/04 12:46:31;;;;;;;21.10;11.57;;;8.90;99.90;;;;;;5062078;28;20033;-49
2022/02/04 12:48:58;;;;;;;20.38;11.57;;;8.90;99.90;;;;;;5071897;28;20436;-50
2022/02/04 12:54:33;;;;;;;19.42;11.32;;;8.90;99.90;;;;;;5065124;28;20466;-51
2022/02/04 12:59:56;;;;;;;19.52;10.88;;;8.90;99.90;;;;;;5069722;28;20386;-49
2022/02/04 13:10:09;;;;;;;20.27;10.27;;;8.90;99.90;;;;;;5064493;28;20035;-50
2022/02/04 13:12:49;;;;;;;15.32;9.35;;;8.90;99.90;;;;;;5071347;28;20052;-50
2022/02/04 13:15:17;;;;;;;14.60;8.77;;;8.90;99.90;;;;;;5064688;28;20020;-50
2022/02/04 13:17:44;;;;;;;18.63;9.38;;;8.90;99.90;;;;;;5069883;28;20052;-50
2022/02/04 13:20:11;;;;;;;14.45;8.75;;;8.90;99.90;;;;;;5064398;28;20094;-55
2022/02/04 13:22:38;;;;;;;15.05;8.50;;;9.00;99.90;;;;;;5071362;28;20036;-50
2022/02/04 13:25:08;;;;;;;13.75;8.15;;;9.00;99.90;;;;;;5071864;28;20031;-53
2022/02/04 13:27:34;;;;;;;12.23;6.53;;;8.90;99.90;;;;;;5062058;28;20029;-50
2022/02/04 13:30:20;;;;;;;14.95;7.93;;;9.00;99.90;;;;;;5071379;28;20461;-50
2022/02/04 13:32:46;;;;;;;12.80;7.25;;;9.00;99.90;;;;;;5062089;28;20379;-51
2022/02/04 13:35:38;;;;;;;15.02;7.15;;;9.00;99.90;;;;;;5070436;28;20039;-50
2022/02/04 13:38:25;;;;;;;15.45;6.35;;;9.00;99.90;;;;;;5060556;28;20028;-50
2022/02/04 13:41:22;;;;;;;15.30;5.80;;;9.00;99.90;;;;;;5069038;28;20116;-48
2022/02/04 13:44:01;;;;;;;11.23;6.15;;;9.00;99.90;;;;;;5067811;28;20080;-48
2022/02/04 13:46:44;;;;;;;11.48;5.95;;;9.00;99.90;;;;;;5069579;28;20169;-50
2022/02/04 13:50:02;;;;;;;13.23;6.18;;;9.00;99.90;;;;;;5064045;28;20063;-48
2022/02/04 13:52:18;;;;;;;7.47;5.25;;;9.00;99.90;;;;;;5056916;28;20457;-51
2022/02/04 14:00:24;;;;;;;9.00;4.60;;;8.90;99.90;;;;;;5067761;28;20082;-48
2022/02/04 14:02:54;;;;;;;8.48;4.85;;;8.90;99.90;;;;;;5069712;28;20041;-51
2022/02/04 14:05:32;;;;;;;10.30;4.72;;;8.90;99.90;;;;;;5062792;28;20025;-49
2022/02/04 14:08:29;;;;;;;13.18;5.05;;;9.00;99.90;;;;;;5070177;28;20047;-49
2022/02/04 14:10:58;;;;;;;9.75;4.63;;;9.00;99.90;;;;;;5060787;28;20041;-49
2022/02/04 14:13:25;;;;;;;10.88;5.25;;;9.00;99.90;;;;;;5070941;28;20459;-49
2022/02/04 14:15:58;;;;;;;10.10;4.75;;;9.00;99.90;;;;;;5067183;28;20107;-48
2022/02/04 14:18:26;;;;;;;10.60;4.63;;;9.00;99.90;;;;;;5062941;28;20071;-51
2022/02/04 14:20:51;;;;;;;17.05;5.18;;;9.00;99.90;;;;;;5069626;28;20028;-51
2022/02/04 14:23:17;;;;;;;13.27;5.40;;;9.00;99.90;;;;;;5069002;28;20398;-50
2022/02/04 14:26:12;;;;;;;10.80;5.60;;;9.00;99.90;;;;;;5068626;28;20035;-49
2022/02/04 14:28:46;;;;;;;9.25;5.85;;;8.90;99.90;;;;;;5067589;28;20023;-51
2022/02/04 15:01:12;;;;;;;9.90;5.28;;;9.00;99.90;;;;;;5060593;28;20146;-50
2022/02/04 15:03:46;;;;;;;9.77;5.82;;;8.90;99.90;;;;;;5069984;28;20028;-48
2022/02/04 15:06:21;;;;;;;8.85;5.40;;;9.00;99.90;;;;;;5065296;28;20043;-49
2022/02/04 15:08:49;;;;;;;8.57;5.95;;;9.00;99.90;;;;;;5070127;28;20339;-50
2022/02/04 15:11:18;;;;;;;12.52;6.28;;;9.00;99.90;;;;;;5057748;28;20032;-49
2022/02/04 15:13:45;;;;;;;10.18;5.38;;;8.90;99.90;;;;;;5067473;28;20028;-51
2022/02/04 15:16:11;;;;;;;10.02;6.03;;;8.80;99.90;;;;;;5062745;28;20117;-50
2022/02/04 15:18:39;;;;;;;10.70;5.82;;;8.90;99.90;;;;;;5061219;28;20087;-50
2022/02/04 15:21:11;;;;;;;9.07;5.97;;;8.90;99.90;;;;;;5069754;28;20047;-49
2022/02/04 15:23:38;;;;;;;11.55;6.00;;;8.80;99.90;;;;;;5068911;28;20031;-49
2022/02/04 15:26:04;;;;;;;10.23;6.85;;;8.80;99.90;;;;;;5062162;28;20474;-49
2022/02/04 15:31:08;;;;;;;7.68;4.95;;;8.80;99.90;;;;;;5062048;28;20028;-50
2022/02/04 15:33:36;;;;;;;8.15;5.55;;;8.70;99.90;;;;;;5064942;28;20074;-50
2022/02/04 15:36:03;;;;;;;7.03;5.55;;;8.70;99.90;;;;;;5056769;28;20481;-50
2022/02/04 15:38:29;;;;;;;6.68;5.20;;;8.70;99.90;;;;;;5063473;28;20060;-53
2022/02/04 15:40:57;;;;;;;12.32;6.55;;;8.70;99.90;;;;;;5066016;28;20056;-52
2022/02/04 15:43:24;;;;;;;8.38;5.47;;;8.70;99.90;;;;;;5067821;28;20112;-50
2022/02/04 15:48:42;;;;;;;11.98;6.03;;;8.60;99.90;;;;;;5066016;28;20060;-49
2022/02/04 16:04:28;;;;;;;10.32;6.13;;;8.50;99.90;;;;;;5061554;28;20044;-50
2022/02/04 16:06:54;;;;;;;7.78;5.05;;;8.50;99.90;;;;;;5072922;28;20116;-51
2022/02/04 16:09:21;;;;;;;7.22;5.35;;;8.40;99.90;;;;;;5072845;28;20123;-50
2022/02/04 16:12:16;;;;;;;6.55;5.38;;;8.40;99.90;;;;;;5073988;28;20500;-50
2022/02/04 16:14:49;;;;;;;10.15;6.05;;;8.30;99.90;;;;;;5073425;28;20039;-48
2022/02/04 16:17:26;;;;;;;12.15;7.07;;;8.30;99.90;;;;;;5072586;28;20063;-52
2022/02/04 16:20:51;;;;;;;13.27;8.30;;;8.20;99.90;;;;;;5073291;28;20024;-48
2022/02/04 16:25:33;;;;;;;15.45;9.27;;;8.30;99.90;;;;;;5071607;28;20047;-50
2022/02/04 16:30:43;;;;;;;20.75;12.23;;;8.30;99.90;;;;;;5073047;28;20035;-50
2022/02/04 16:33:08;;;;;;;17.02;9.50;;;8.20;99.90;;;;;;5073448;28;20115;-50
2022/02/04 16:35:34;;;;;;;13.85;8.88;;;8.20;99.90;;;;;;5071703;28;20036;-48
2022/02/04 16:38:04;;;;;;;11.77;8.77;;;8.20;99.90;;;;;;5072669;28;20366;-53
2022/02/04 16:40:35;;;;;;;11.70;8.23;;;8.20;99.90;;;;;;5072075;28;20514;-50
2022/02/04 16:43:01;;;;;;;15.05;8.20;;;8.20;99.90;;;;;;5072431;28;20043;-51
2022/02/04 16:45:27;;;;;;;11.32;7.95;;;8.20;99.90;;;;;;5071555;28;20024;-51
2022/02/04 16:47:56;;;;;;;11.35;8.10;;;8.20;99.90;;;;;;5072292;28;20033;-49
2022/02/04 16:50:23;;;;;;;11.63;7.40;;;8.20;99.90;;;;;;5072069;28;20037;-50
2022/02/04 16:52:53;;;;;;;12.05;8.93;;;8.20;99.90;;;;;;5072989;28;20059;-51
2022/02/04 16:55:20;;;;;;;11.82;7.93;;;8.20;99.90;;;;;;5071520;28;20102;-49
2022/02/04 16:57:47;;;;;;;9.38;6.82;;;8.20;99.90;;;;;;5072592;28;20050;-50
2022/02/04 17:00:23;;;;;;;10.35;7.13;;;8.20;99.90;;;;;;5072001;28;20056;-48
2022/02/04 17:02:56;;;;;;;11.00;7.10;;;8.20;99.90;;;;;;5067457;28;20032;-47
2022/02/04 17:05:24;;;;;;;14.43;7.60;;;8.10;99.90;;;;;;5063472;28;20025;-49
2022/02/04 17:07:55;;;;;;;8.95;6.13;;;8.00;99.90;;;;;;5067274;28;20550;-47
2022/02/04 17:10:29;;;;;;;8.38;5.93;;;7.90;99.90;;;;;;5073251;28;20045;-48
2022/02/04 17:13:01;;;;;;;9.93;6.40;;;7.90;99.90;;;;;;5065985;28;20081;-48
2022/02/04 17:15:29;;;;;;;20.23;9.38;;;7.80;99.90;;;;;;5061768;28;20031;-49
2022/02/04 17:17:56;;;;;;;7.03;3.20;;;7.70;99.90;;;;;;5074859;28;20037;-50
2022/02/04 17:20:22;;;;;;;5.38;1.40;;;7.00;99.90;;;;;;5071857;28;20025;-48
2022/02/04 17:22:49;;;;;;;4.70;1.80;;;6.00;99.90;;;;;;5072959;28;20059;-50
2022/02/04 17:25:15;;;;;;;4.03;1.95;;;5.70;99.90;;;;;;5066665;28;20032;-49
2022/02/04 17:27:45;;;;;;;4.68;1.63;;;5.40;99.90;;;;;;5061688;28;20035;-49
2022/02/04 17:30:14;;;;;;;3.38;1.73;;;5.40;99.90;;;;;;5071205;28;20044;-50
2022/02/04 17:32:42;;;;;;;1.67;1.08;;;5.30;99.90;;;;;;5072229;28;20074;-49
2022/02/04 17:35:09;;;;;;;1.65;1.00;;;5.00;99.90;;;;;;5065896;28;20397;-48
2022/02/04 17:37:36;;;;;;;5.53;1.40;;;4.90;99.90;;;;;;5071766;28;20024;-49
2022/02/04 17:40:04;;;;;;;1.95;0.90;;;4.90;99.90;;;;;;5061955;28;20382;-50
2022/02/04 17:42:30;;;;;;;2.58;1.02;;;4.80;99.90;;;;;;5058919;28;20212;-50
2022/02/04 17:44:56;;;;;;;1.33;0.85;;;4.70;99.90;;;;;;5069586;28;20035;-49
2022/02/04 17:47:26;;;;;;;3.55;1.10;;;4.70;99.90;;;;;;5071415;28;20107;-49
2022/02/04 17:52:47;;;;;;;3.35;1.23;;;4.50;99.90;;;;;;5069608;28;20032;-50
2022/02/04 17:55:26;;;;;;;3.88;1.17;;;4.30;99.90;;;;;;5070407;28;20037;-50
2022/02/04 17:58:11;;;;;;;3.45;1.60;;;4.20;99.90;;;;;;5087593;28;20477;-50
2022/02/04 18:01:11;;;;;;;4.88;2.17;;;4.20;99.90;;;;;;5091760;28;20028;-49
2022/02/04 18:09:00;;;;;;;3.42;1.75;;;3.90;99.90;;;;;;5039620;28;20029;-51
2022/02/04 18:11:26;;;;;;;3.00;1.63;;;3.80;99.90;;;;;;5069910;28;20493;-52
2022/02/04 18:13:53;;;;;;;3.58;1.30;;;3.70;99.90;;;;;;5071213;28;20027;-50
2022/02/04 18:16:19;;;;;;;2.15;1.50;;;3.70;99.90;;;;;;5069901;28;20119;-50
2022/02/04 18:18:44;;;;;;;2.22;1.52;;;3.70;99.90;;;;;;5070534;28;20107;-51
2022/02/04 18:21:10;;;;;;;4.72;1.85;;;3.70;99.90;;;;;;5070930;28;20060;-51
2022/02/04 18:23:35;;;;;;;3.03;1.60;;;3.70;99.90;;;;;;5070036;28;20035;-51
2022/02/04 18:26:01;;;;;;;2.88;1.70;;;3.70;99.90;;;;;;5059500;28;20082;-50
2022/02/04 18:28:27;;;;;;;2.67;1.65;;;3.70;99.90;;;;;;5053627;28;20090;-50
2022/02/04 18:30:55;;;;;;;4.03;1.90;;;3.70;99.90;;;;;;5084420;28;20049;-50
2022/02/04 18:33:21;;;;;;;3.58;2.20;;;3.70;99.90;;;;;;5070215;28;20386;-48
2022/02/04 18:35:52;;;;;;;11.90;5.82;;;3.70;99.90;;;;;;5065565;28;20034;-48
2022/02/04 18:38:26;;;;;;;14.57;8.15;;;3.80;99.90;;;;;;5068642;28;20033;-47
2022/02/04 18:46:20;;;;;;;5.15;3.22;;;4.00;99.90;;;;;;5063917;28;20207;-51
2022/02/04 18:48:52;;;;;;;7.90;4.10;;;3.80;99.90;;;;;;5070161;28;20383;-51
2022/02/04 18:51:38;;;;;;;7.10;4.13;;;3.80;99.90;;;;;;5069931;28;20392;-48
2022/02/04 18:59:31;;;;;;;5.30;3.53;;;3.70;99.90;;;;;;5069531;28;20493;-50
2022/02/04 19:01:57;;;;;;;7.95;3.55;;;3.70;99.90;;;;;;5070177;28;20115;-50
2022/02/04 19:04:33;;;;;;;7.68;3.92;;;3.70;99.90;;;;;;5069451;28;20478;-48
2022/02/04 19:07:04;;;;;;;5.25;3.50;;;3.80;99.90;;;;;;5069404;28;20055;-49
2022/02/04 19:09:30;;;;;;;6.95;4.20;;;3.80;99.90;;;;;;5067586;28;20330;-48
2022/02/04 19:12:03;;;;;;;5.07;3.45;;;3.80;99.90;;;;;;5060682;28;20032;-52
2022/02/04 19:17:19;;;;;;;8.77;3.70;;;3.80;99.90;;;;;;5066193;28;20032;-49
2022/02/04 19:19:55;;;;;;;4.90;3.22;;;3.70;99.90;;;;;;5062137;28;20028;-53
2022/02/04 19:22:38;;;;;;;5.32;3.22;;;3.70;99.90;;;;;;5069165;28;20086;-49
2022/02/04 19:25:11;;;;;;;5.72;3.20;;;3.70;99.90;;;;;;5061557;28;20032;-50
2022/02/04 19:27:37;;;;;;;6.43;3.58;;;3.70;99.90;;;;;;5060943;28;20123;-51
2022/02/04 19:30:09;;;;;;;6.32;3.63;;;3.70;99.90;;;;;;5069384;28;20406;-49
2022/02/04 19:32:35;;;;;;;7.13;4.10;;;3.70;99.90;;;;;;5068621;28;20040;-49
2022/02/04 19:35:00;;;;;;;7.65;3.83;;;3.80;99.90;;;;;;5062896;28;20032;-51
2022/02/04 19:37:26;;;;;;;6.68;3.53;;;3.80;99.90;;;;;;5061322;28;20032;-53